createdAt,value
2019-03-22T09:32:06.363Z,61.50
2019-03-22T12:02:22.520Z,71.70
2019-03-22T12:04:52.126Z,55.50
2019-03-22T12:07:23.203Z,54.50
2019-03-22T12:09:54.099Z,53.50
2019-03-22T12:12:24.960Z,53.70
2019-03-22T12:14:55.954Z,52.70
2019-03-22T12:17:26.798Z,52.20
2019-03-22T12:19:57.608Z,52.00
2019-03-22T12:22:28.804Z,52.00
2019-03-22T12:24:59.604Z,51.20
2019-03-22T12:27:36.455Z,51.10
2019-03-22T12:30:02.983Z,50.90
2019-03-22T12:32:34.105Z,50.20
2019-03-22T12:35:05.938Z,49.20
2019-03-22T12:37:36.975Z,48.60
2019-03-22T12:40:08.694Z,48.20
2019-03-22T12:42:39.632Z,48.70
2019-03-22T12:45:15.429Z,47.30
2019-03-22T12:47:46.203Z,47.00
2019-03-22T12:50:17.177Z,48.00
2019-03-22T12:52:48.106Z,47.90
2019-03-22T12:55:21.243Z,48.90
2019-03-22T12:57:52.274Z,49.20
2019-03-22T13:00:23.317Z,49.40
2019-03-22T13:02:54.794Z,50.00
2019-03-22T13:05:25.874Z,47.60
2019-03-22T13:07:58.045Z,47.40
2019-03-22T13:10:29.364Z,48.50
2019-03-22T13:13:00.271Z,55.40
2019-03-22T13:15:31.226Z,48.20
2019-03-22T13:18:02.195Z,57.30
2019-03-22T13:20:32.987Z,60.50
2019-03-22T13:23:03.906Z,54.50
2019-03-22T13:25:36.314Z,53.60
2019-03-22T13:28:07.368Z,52.50
2019-03-22T13:30:38.325Z,46.80
2019-03-22T13:33:09.118Z,45.80
2019-03-22T13:35:40.032Z,47.20
2019-03-22T13:38:11.310Z,45.40
2019-03-22T13:40:42.180Z,45.30
2019-03-22T13:43:12.999Z,45.80
2019-03-22T13:45:44.110Z,45.20
2019-03-22T13:48:14.960Z,44.90
2019-03-22T13:50:45.848Z,44.20
2019-03-22T13:53:16.889Z,44.50
2019-03-22T13:55:47.755Z,41.40
2019-03-22T13:58:18.583Z,40.90
2019-03-22T14:00:49.532Z,40.80
2019-03-22T14:03:20.526Z,41.80
2019-03-22T14:05:51.442Z,40.20
2019-03-22T14:08:22.326Z,43.10
2019-03-22T14:10:53.174Z,42.50
2019-03-22T14:13:23.970Z,40.60
2019-03-22T14:15:54.739Z,41.80
2019-03-22T14:18:25.619Z,41.70
2019-03-22T14:20:56.556Z,41.80
2019-03-22T14:23:27.681Z,41.50
2019-03-22T14:25:58.497Z,40.90
2019-03-22T14:28:29.314Z,41.30
2019-03-22T14:31:00.412Z,40.10
2019-03-22T14:33:31.384Z,40.50
2019-03-22T14:36:02.162Z,42.20
2019-03-22T14:38:33.092Z,40.30
2019-03-22T14:41:03.934Z,42.20
2019-03-22T14:43:34.913Z,40.90
2019-03-22T14:46:05.786Z,40.90
2019-03-22T14:48:36.559Z,44.30
2019-03-22T14:51:07.354Z,41.10
2019-03-22T14:53:39.706Z,40.40
2019-03-22T14:56:10.471Z,40.90
2019-03-22T14:58:41.239Z,40.60
2019-03-22T15:01:12.014Z,41.20
2019-03-22T15:03:42.870Z,41.30
2019-03-22T15:06:13.651Z,40.30
2019-03-22T15:08:44.503Z,40.70
2019-03-22T15:11:15.265Z,40.40
2019-03-22T15:14:03.710Z,40.40
2019-03-22T15:16:43.449Z,40.70
2019-03-22T15:19:30.207Z,42.00
2019-03-22T15:22:18.612Z,41.90
2019-03-22T15:25:23.597Z,43.20
2019-03-22T15:28:13.446Z,41.70
2019-03-22T15:31:18.290Z,41.90
2019-03-22T15:34:12.124Z,45.50
2019-03-22T15:37:20.036Z,44.30
2019-03-22T15:40:02.888Z,42.90
2019-03-22T15:42:33.719Z,43.10
2019-03-22T15:45:05.409Z,44.50
2019-03-22T15:47:36.272Z,43.30
2019-03-22T15:50:08.154Z,43.30
2019-03-22T15:52:38.956Z,44.30
2019-03-22T15:55:09.866Z,43.10
2019-03-22T15:57:40.853Z,43.20
2019-03-22T16:00:14.653Z,43.20
2019-03-22T16:02:45.720Z,46.60
2019-03-22T16:05:17.353Z,44.30
2019-03-22T16:07:48.662Z,43.80
2019-03-22T16:10:20.133Z,43.70
2019-03-22T16:12:51.247Z,43.10
2019-03-22T16:15:22.496Z,43.30
2019-03-22T16:17:53.439Z,43.00
2019-03-22T16:20:24.994Z,43.60
2019-03-22T16:22:55.868Z,43.10
2019-03-22T16:25:26.835Z,43.10
2019-03-22T16:27:57.998Z,43.30
2019-03-22T16:30:28.839Z,43.70
2019-03-22T16:32:59.806Z,43.40
2019-03-22T16:35:30.755Z,43.60
2019-03-22T16:38:01.714Z,43.40
2019-03-22T16:40:32.775Z,43.40
2019-03-22T16:43:03.918Z,43.80
2019-03-22T16:45:42.618Z,44.00
2019-03-22T16:48:13.983Z,44.40
2019-03-22T16:50:45.003Z,45.20
2019-03-22T16:53:16.015Z,44.70
2019-03-22T16:55:47.114Z,44.30
2019-03-22T16:58:18.130Z,44.30
2019-03-22T17:00:50.062Z,44.80
2019-03-22T17:03:22.770Z,44.80
2019-03-22T17:05:53.749Z,45.10
2019-03-22T17:08:24.666Z,44.80
2019-03-22T17:10:56.002Z,45.00
2019-03-22T17:13:26.915Z,44.70
2019-03-22T17:15:58.018Z,45.00
2019-03-22T17:18:29.028Z,44.40
2019-03-22T17:20:59.966Z,45.00
2019-03-22T17:23:30.902Z,45.50
2019-03-22T17:26:01.859Z,46.30
2019-03-22T17:28:32.742Z,46.50
2019-03-22T17:31:03.617Z,47.00
2019-03-22T17:33:34.579Z,47.80
2019-03-22T17:36:05.546Z,47.10
2019-03-22T17:38:36.386Z,48.10
2019-03-22T17:41:07.303Z,48.70
2019-03-22T17:43:38.270Z,47.90
2019-03-22T17:46:09.126Z,48.80
2019-03-22T17:48:40.185Z,48.50
2019-03-22T17:51:11.138Z,47.80
2019-03-22T17:53:42.648Z,47.70
2019-03-22T17:56:13.921Z,48.00
2019-03-22T17:58:44.756Z,48.10
2019-03-22T18:01:15.621Z,48.60
2019-03-22T18:03:46.500Z,48.80
2019-03-22T18:06:17.359Z,48.10
2019-03-22T18:08:48.122Z,48.60
2019-03-22T18:11:19.051Z,48.80
2019-03-22T18:13:50.087Z,48.40
2019-03-22T18:16:20.849Z,49.00
2019-03-22T18:18:51.647Z,49.30
2019-03-22T18:21:22.427Z,48.90
2019-03-22T18:23:53.230Z,48.90
2019-03-22T18:26:24.074Z,49.10
2019-03-22T18:28:54.946Z,48.80
2019-03-22T18:31:25.979Z,48.70
2019-03-22T18:33:56.958Z,48.60
2019-03-22T18:36:28.137Z,48.80
2019-03-22T18:38:59.041Z,49.10
2019-03-22T18:41:29.972Z,49.50
2019-03-22T18:44:00.886Z,49.50
2019-03-22T18:46:31.698Z,49.70
2019-03-22T18:49:02.603Z,50.10
2019-03-22T18:51:33.478Z,50.10
2019-03-22T18:54:04.637Z,50.40
2019-03-22T18:56:35.625Z,50.20
2019-03-22T18:59:06.435Z,50.80
2019-03-22T19:01:37.246Z,50.70
2019-03-22T19:04:08.310Z,50.90
2019-03-22T19:06:39.126Z,51.10
2019-03-22T19:09:10.194Z,50.90
2019-03-22T19:11:41.097Z,51.20
2019-03-22T19:14:11.882Z,51.70
2019-03-22T19:16:42.665Z,51.70
2019-03-22T19:19:13.534Z,51.40
2019-03-22T19:21:44.327Z,51.40
2019-03-22T19:24:15.158Z,52.20
2019-03-22T19:26:46.177Z,52.50
2019-03-22T19:29:17.262Z,52.70
2019-03-22T19:31:48.346Z,53.10
2019-03-22T19:34:19.212Z,53.40
2019-03-22T19:36:50.246Z,53.60
2019-03-22T19:39:21.118Z,53.70
2019-03-22T19:41:52.023Z,53.70
2019-03-22T19:44:22.958Z,53.70
2019-03-22T19:46:53.823Z,53.80
2019-03-22T19:49:24.691Z,54.30
2019-03-22T19:51:55.571Z,54.30
2019-03-22T19:54:26.486Z,54.30
2019-03-22T19:56:57.350Z,54.10
2019-03-22T19:59:28.340Z,54.60
2019-03-22T20:02:01.932Z,55.30
2019-03-22T20:04:32.726Z,55.70
2019-03-22T20:07:03.502Z,56.80
2019-03-22T20:09:34.297Z,56.20
2019-03-22T20:12:05.114Z,56.20
2019-03-22T20:14:35.891Z,57.00
2019-03-22T20:17:06.706Z,57.10
2019-03-22T20:19:37.492Z,57.00
2019-03-22T20:22:08.302Z,57.50
2019-03-22T20:24:39.225Z,57.00
2019-03-22T20:27:10.046Z,57.60
2019-03-22T20:29:40.914Z,57.70
2019-03-22T20:32:11.706Z,57.80
2019-03-22T20:34:42.647Z,57.80
2019-03-22T20:37:13.511Z,58.00
2019-03-22T20:39:44.432Z,58.10
2019-03-22T20:42:15.261Z,58.00
2019-03-22T20:44:46.057Z,58.30
2019-03-22T20:47:16.919Z,58.40
2019-03-22T20:49:48.043Z,58.10
2019-03-22T20:52:18.844Z,58.40
2019-03-22T20:54:49.658Z,57.60
2019-03-22T20:57:20.568Z,57.50
2019-03-22T20:59:51.905Z,57.30
2019-03-22T21:02:22.901Z,57.80
2019-03-22T21:04:53.835Z,58.30
2019-03-22T21:07:24.885Z,59.50
2019-03-22T21:09:55.747Z,59.50
2019-03-22T21:12:26.827Z,59.40
2019-03-22T21:14:57.769Z,59.30
2019-03-22T21:17:28.857Z,59.40
2019-03-22T21:19:59.975Z,59.10
2019-03-22T21:22:31.318Z,59.50
2019-03-22T21:25:02.280Z,59.60
2019-03-22T21:27:34.060Z,60.00
2019-03-22T21:30:06.117Z,60.60
2019-03-22T21:32:44.689Z,60.70
2019-03-22T21:35:21.607Z,60.90
2019-03-22T21:37:42.837Z,61.30
2019-03-22T21:40:15.071Z,61.50
2019-03-22T21:42:47.801Z,62.20
2019-03-22T21:45:19.171Z,62.20
2019-03-22T21:47:50.291Z,61.90
2019-03-22T21:50:21.107Z,62.00
2019-03-22T21:52:52.081Z,62.60
2019-03-22T21:55:22.911Z,62.90
2019-03-22T21:57:53.734Z,62.70
2019-03-22T22:00:24.764Z,62.50
2019-03-22T22:02:55.579Z,62.50
2019-03-22T22:05:26.547Z,62.90
2019-03-22T22:07:57.459Z,62.60
2019-03-22T22:10:28.340Z,62.70
2019-03-22T22:12:59.400Z,62.80
2019-03-22T22:15:30.310Z,62.60
2019-03-22T22:18:01.230Z,62.40
2019-03-22T22:20:32.186Z,63.10
2019-03-22T22:23:03.018Z,63.20
2019-03-22T22:25:33.858Z,62.70
2019-03-22T22:28:04.955Z,62.60
2019-03-22T22:30:35.767Z,63.20
2019-03-22T22:33:06.603Z,62.80
2019-03-22T22:35:37.387Z,62.40
2019-03-22T22:38:08.297Z,62.30
2019-03-22T22:40:39.058Z,63.40
2019-03-22T22:43:10.118Z,65.40
2019-03-22T22:45:40.906Z,67.30
2019-03-22T22:48:11.806Z,66.90
2019-03-22T22:50:42.754Z,68.20
2019-03-22T22:53:13.615Z,70.00
2019-03-22T22:55:44.427Z,70.60
2019-03-22T22:58:15.290Z,70.70
2019-03-22T23:00:47.028Z,69.30
2019-03-22T23:03:18.068Z,69.80
2019-03-22T23:05:48.855Z,73.50
2019-03-22T23:08:19.638Z,75.00
2019-03-22T23:10:50.625Z,76.30
2019-03-22T23:13:21.470Z,76.50
2019-03-22T23:15:52.505Z,77.10
2019-03-22T23:18:23.515Z,77.00
2019-03-22T23:20:54.446Z,78.10
2019-03-22T23:23:25.363Z,78.30
2019-03-22T23:25:56.439Z,78.00
2019-03-22T23:28:27.479Z,78.70
2019-03-22T23:30:58.390Z,78.90
2019-03-22T23:33:29.302Z,78.10
2019-03-22T23:36:00.163Z,76.20
2019-03-22T23:38:31.147Z,77.80
2019-03-22T23:41:01.997Z,78.40
2019-03-22T23:43:33.004Z,79.20
2019-03-22T23:46:03.852Z,79.90
2019-03-22T23:48:34.738Z,79.80
2019-03-22T23:51:08.375Z,80.10
2019-03-22T23:53:39.272Z,80.30
2019-03-22T23:56:10.263Z,80.90
2019-03-22T23:58:41.324Z,81.00
